sensor_id;sensor_type;location;lat;lon;timestamp;noise_LAeq;noise_LA_min;noise_LA_max;noise_LA01;noise_LA95
60872;Laerm;46714;50.118;14.462;2023-12-14T00:02:01;68.89;58.20;77.49;;
60872;Laerm;46714;50.118;14.462;2023-12-14T00:04:26;68.83;60.06;77.21;;
60872;Laerm;46714;50.118;14.462;2023-12-14T00:06:51;67.71;58.13;75.11;;
60872;Laerm;46714;50.118;14.462;2023-12-14T00:09:17;68.12;51.95;77.46;;
60872;Laerm;46714;50.118;14.462;2023-12-14T00:11:42;67.63;49.88;75.02;;
60872;Laerm;46714;50.118;14.462;2023-12-14T00:14:07;67.80;55.71;77.10;;
60872;Laerm;46714;50.118;14.462;2023-12-14T00:16:33;69.28;58.51;78.71;;
60872;Laerm;46714;50.118;14.462;2023-12-14T00:18:58;68.62;49.90;76.61;;
60872;Laerm;46714;50.118;14.462;2023-12-14T00:21:24;68.17;54.59;75.46;;
60872;Laerm;46714;50.118;14.462;2023-12-14T00:23:49;68.09;51.02;75.82;;
60872;Laerm;46714;50.118;14.462;2023-12-14T00:26:15;68.97;56.13;76.00;;
60872;Laerm;46714;50.118;14.462;2023-12-14T00:28:40;68.09;56.25;78.70;;
60872;Laerm;46714;50.118;14.462;2023-12-14T00:31:05;69.50;54.33;76.00;;
60872;Laerm;46714;50.118;14.462;2023-12-14T00:33:31;66.67;52.66;72.87;;
60872;Laerm;46714;50.118;14.462;2023-12-14T00:35:57;69.33;54.59;79.45;;
60872;Laerm;46714;50.118;14.462;2023-12-14T00:38:22;68.46;55.00;75.86;;
60872;Laerm;46714;50.118;14.462;2023-12-14T00:40:48;69.73;60.00;76.49;;
60872;Laerm;46714;50.118;14.462;2023-12-14T00:43:13;68.27;51.02;76.55;;
60872;Laerm;46714;50.118;14.462;2023-12-14T00:45:38;66.36;53.17;73.76;;
60872;Laerm;46714;50.118;14.462;2023-12-14T00:48:06;68.47;55.80;75.02;;
60872;Laerm;46714;50.118;14.462;2023-12-14T00:50:31;68.11;55.81;76.90;;
60872;Laerm;46714;50.118;14.462;2023-12-14T00:52:57;68.22;53.97;81.56;;
60872;Laerm;46714;50.118;14.462;2023-12-14T00:55:22;68.04;53.85;76.77;;
60872;Laerm;46714;50.118;14.462;2023-12-14T00:57:47;68.14;51.71;75.34;;
60872;Laerm;46714;50.118;14.462;2023-12-14T01:00:13;67.70;58.42;83.99;;
60872;Laerm;46714;50.118;14.462;2023-12-14T01:02:39;65.53;50.59;73.26;;
60872;Laerm;46714;50.118;14.462;2023-12-14T01:05:04;67.46;46.93;75.21;;
60872;Laerm;46714;50.118;14.462;2023-12-14T01:07:30;67.20;54.68;75.65;;
60872;Laerm;46714;50.118;14.462;2023-12-14T01:09:55;74.10;55.05;95.80;;
60872;Laerm;46714;50.118;14.462;2023-12-14T01:12:20;68.90;54.96;79.47;;
60872;Laerm;46714;50.118;14.462;2023-12-14T01:14:46;65.07;49.36;75.92;;
60872;Laerm;46714;50.118;14.462;2023-12-14T01:17:11;68.54;54.87;75.19;;
60872;Laerm;46714;50.118;14.462;2023-12-14T01:19:39;67.09;46.89;76.60;;
60872;Laerm;46714;50.118;14.462;2023-12-14T01:22:05;66.83;47.99;74.77;;
60872;Laerm;46714;50.118;14.462;2023-12-14T01:24:30;67.64;55.35;74.99;;
60872;Laerm;46714;50.118;14.462;2023-12-14T01:26:55;66.48;52.04;76.27;;
60872;Laerm;46714;50.118;14.462;2023-12-14T01:29:21;68.43;52.97;77.74;;
60872;Laerm;46714;50.118;14.462;2023-12-14T01:31:46;66.75;52.31;74.64;;
60872;Laerm;46714;50.118;14.462;2023-12-14T01:34:11;67.02;49.29;75.84;;
60872;Laerm;46714;50.118;14.462;2023-12-14T01:36:37;65.31;49.21;73.62;;
60872;Laerm;46714;50.118;14.462;2023-12-14T01:39:03;66.99;49.60;75.96;;
60872;Laerm;46714;50.118;14.462;2023-12-14T01:41:28;67.91;54.49;75.71;;
60872;Laerm;46714;50.118;14.462;2023-12-14T01:43:53;65.85;52.19;72.47;;
60872;Laerm;46714;50.118;14.462;2023-12-14T01:46:19;66.86;53.09;76.08;;
60872;Laerm;46714;50.118;14.462;2023-12-14T01:48:44;65.91;51.88;76.20;;
60872;Laerm;46714;50.118;14.462;2023-12-14T01:51:09;66.78;53.05;75.90;;
60872;Laerm;46714;50.118;14.462;2023-12-14T01:53:35;68.20;53.53;79.39;;
60872;Laerm;46714;50.118;14.462;2023-12-14T01:56:00;67.15;49.90;78.27;;
60872;Laerm;46714;50.118;14.462;2023-12-14T01:58:25;66.20;53.41;75.77;;
60872;Laerm;46714;50.118;14.462;2023-12-14T02:01:11;66.77;46.45;75.54;;
60872;Laerm;46714;50.118;14.462;2023-12-14T02:04:05;68.83;49.06;84.84;;
60872;Laerm;46714;50.118;14.462;2023-12-14T02:06:33;67.05;48.88;76.20;;
60872;Laerm;46714;50.118;14.462;2023-12-14T02:08:59;67.44;50.93;74.92;;
60872;Laerm;46714;50.118;14.462;2023-12-14T02:11:24;68.17;56.89;77.07;;
60872;Laerm;46714;50.118;14.462;2023-12-14T02:13:49;67.62;57.07;78.01;;
60872;Laerm;46714;50.118;14.462;2023-12-14T02:16:15;66.81;52.03;75.90;;
60872;Laerm;46714;50.118;14.462;2023-12-14T02:18:41;68.22;52.74;78.60;;
60872;Laerm;46714;50.118;14.462;2023-12-14T02:21:06;66.59;44.65;75.23;;
60872;Laerm;46714;50.118;14.462;2023-12-14T02:23:32;67.31;53.13;77.89;;
60872;Laerm;46714;50.118;14.462;2023-12-14T02:25:58;67.03;52.72;77.27;;
60872;Laerm;46714;50.118;14.462;2023-12-14T02:28:24;67.24;48.55;79.26;;
60872;Laerm;46714;50.118;14.462;2023-12-14T02:30:49;74.17;56.74;90.93;;
60872;Laerm;46714;50.118;14.462;2023-12-14T02:33:14;67.89;53.14;76.75;;
60872;Laerm;46714;50.118;14.462;2023-12-14T02:35:40;68.04;54.04;77.58;;
60872;Laerm;46714;50.118;14.462;2023-12-14T02:38:05;69.69;58.75;77.74;;
60872;Laerm;46714;50.118;14.462;2023-12-14T02:40:31;67.68;50.68;77.28;;
60872;Laerm;46714;50.118;14.462;2023-12-14T02:42:56;66.08;55.15;75.61;;
60872;Laerm;46714;50.118;14.462;2023-12-14T02:45:21;64.40;52.30;71.35;;
60872;Laerm;46714;50.118;14.462;2023-12-14T02:47:47;67.67;47.46;78.97;;
60872;Laerm;46714;50.118;14.462;2023-12-14T02:50:13;67.38;57.40;77.06;;
60872;Laerm;46714;50.118;14.462;2023-12-14T02:52:39;67.87;51.25;75.54;;
60872;Laerm;46714;50.118;14.462;2023-12-14T02:55:04;65.78;50.55;78.31;;
60872;Laerm;46714;50.118;14.462;2023-12-14T02:57:30;64.59;52.09;76.22;;
60872;Laerm;46714;50.118;14.462;2023-12-14T02:59:55;67.81;54.70;76.18;;
60872;Laerm;46714;50.118;14.462;2023-12-14T03:02:22;66.97;51.20;80.80;;
60872;Laerm;46714;50.118;14.462;2023-12-14T03:04:47;65.29;51.76;73.32;;
60872;Laerm;46714;50.118;14.462;2023-12-14T03:07:12;65.84;49.14;75.43;;
60872;Laerm;46714;50.118;14.462;2023-12-14T03:09:41;67.02;54.48;78.97;;
60872;Laerm;46714;50.118;14.462;2023-12-14T03:12:08;65.93;53.17;76.48;;
60872;Laerm;46714;50.118;14.462;2023-12-14T03:14:33;62.59;50.53;70.83;;
60872;Laerm;46714;50.118;14.462;2023-12-14T03:16:59;66.73;51.92;77.97;;
60872;Laerm;46714;50.118;14.462;2023-12-14T03:19:25;66.51;54.42;76.22;;
60872;Laerm;46714;50.118;14.462;2023-12-14T03:21:50;65.20;48.78;73.43;;
60872;Laerm;46714;50.118;14.462;2023-12-14T03:24:15;67.98;51.05;75.72;;
60872;Laerm;46714;50.118;14.462;2023-12-14T03:26:41;65.21;46.89;74.26;;
60872;Laerm;46714;50.118;14.462;2023-12-14T03:29:07;68.04;53.15;76.58;;
60872;Laerm;46714;50.118;14.462;2023-12-14T03:31:33;65.12;51.33;74.76;;
60872;Laerm;46714;50.118;14.462;2023-12-14T03:33:58;67.85;51.37;76.45;;
60872;Laerm;46714;50.118;14.462;2023-12-14T03:36:24;67.56;56.26;76.15;;
60872;Laerm;46714;50.118;14.462;2023-12-14T03:38:51;67.81;57.80;74.40;;
60872;Laerm;46714;50.118;14.462;2023-12-14T03:41:17;68.27;52.88;77.03;;
60872;Laerm;46714;50.118;14.462;2023-12-14T03:43:42;68.40;56.91;76.92;;
60872;Laerm;46714;50.118;14.462;2023-12-14T03:46:07;70.37;60.44;80.22;;
60872;Laerm;46714;50.118;14.462;2023-12-14T03:48:33;69.10;57.35;77.26;;
60872;Laerm;46714;50.118;14.462;2023-12-14T03:51:02;69.75;54.93;78.94;;
60872;Laerm;46714;50.118;14.462;2023-12-14T03:53:28;70.96;60.37;80.88;;
60872;Laerm;46714;50.118;14.462;2023-12-14T03:55:54;67.49;56.32;76.33;;
60872;Laerm;46714;50.118;14.462;2023-12-14T03:58:20;69.93;60.39;77.15;;
60872;Laerm;46714;50.118;14.462;2023-12-14T04:00:45;68.87;60.96;77.88;;
60872;Laerm;46714;50.118;14.462;2023-12-14T04:03:10;70.07;62.70;77.62;;
60872;Laerm;46714;50.118;14.462;2023-12-14T04:05:36;66.46;52.41;77.54;;
60872;Laerm;46714;50.118;14.462;2023-12-14T04:08:01;69.88;59.75;78.63;;
60872;Laerm;46714;50.118;14.462;2023-12-14T04:10:26;68.10;58.28;77.91;;
60872;Laerm;46714;50.118;14.462;2023-12-14T04:12:52;70.44;58.60;77.14;;
60872;Laerm;46714;50.118;14.462;2023-12-14T04:15:17;70.98;62.35;77.01;;
60872;Laerm;46714;50.118;14.462;2023-12-14T04:17:43;71.20;63.09;77.58;;
60872;Laerm;46714;50.118;14.462;2023-12-14T04:20:09;71.34;61.51;79.21;;
60872;Laerm;46714;50.118;14.462;2023-12-14T04:22:34;70.98;61.08;78.90;;
60872;Laerm;46714;50.118;14.462;2023-12-14T04:25:00;71.30;59.74;77.31;;
60872;Laerm;46714;50.118;14.462;2023-12-14T04:27:25;71.80;63.56;77.36;;
60872;Laerm;46714;50.118;14.462;2023-12-14T04:29:54;71.91;63.55;77.54;;
60872;Laerm;46714;50.118;14.462;2023-12-14T04:32:19;72.29;64.51;77.77;;
60872;Laerm;46714;50.118;14.462;2023-12-14T04:34:44;72.59;65.44;81.55;;
60872;Laerm;46714;50.118;14.462;2023-12-14T04:37:10;72.52;64.57;78.29;;
60872;Laerm;46714;50.118;14.462;2023-12-14T04:39:35;72.43;65.55;79.09;;
60872;Laerm;46714;50.118;14.462;2023-12-14T04:42:01;73.14;65.58;83.45;;
60872;Laerm;46714;50.118;14.462;2023-12-14T04:44:26;71.78;63.15;76.25;;
60872;Laerm;46714;50.118;14.462;2023-12-14T04:46:51;72.58;65.27;77.32;;
60872;Laerm;46714;50.118;14.462;2023-12-14T04:49:18;72.42;65.84;83.42;;
60872;Laerm;46714;50.118;14.462;2023-12-14T04:51:44;71.97;66.14;76.75;;
60872;Laerm;46714;50.118;14.462;2023-12-14T04:54:10;73.30;67.71;79.55;;
60872;Laerm;46714;50.118;14.462;2023-12-14T04:56:35;72.85;68.24;77.19;;
60872;Laerm;46714;50.118;14.462;2023-12-14T04:59:01;73.18;66.09;77.95;;
60872;Laerm;46714;50.118;14.462;2023-12-14T05:01:26;73.00;67.67;77.95;;
60872;Laerm;46714;50.118;14.462;2023-12-14T05:03:52;72.97;66.70;78.32;;
60872;Laerm;46714;50.118;14.462;2023-12-14T05:06:18;72.72;65.93;77.77;;
60872;Laerm;46714;50.118;14.462;2023-12-14T05:08:43;74.03;68.13;79.30;;
60872;Laerm;46714;50.118;14.462;2023-12-14T05:11:08;73.78;67.41;82.75;;
60872;Laerm;46714;50.118;14.462;2023-12-14T05:13:34;74.69;69.28;79.68;;
60872;Laerm;46714;50.118;14.462;2023-12-14T05:16:00;73.10;67.85;77.84;;
60872;Laerm;46714;50.118;14.462;2023-12-14T05:18:26;73.77;68.51;79.71;;
60872;Laerm;46714;50.118;14.462;2023-12-14T05:20:52;73.83;64.71;79.16;;
60872;Laerm;46714;50.118;14.462;2023-12-14T05:23:17;73.11;65.49;79.28;;
60872;Laerm;46714;50.118;14.462;2023-12-14T05:25:44;73.55;65.20;79.53;;
60872;Laerm;46714;50.118;14.462;2023-12-14T05:28:09;74.39;67.96;82.13;;
60872;Laerm;46714;50.118;14.462;2023-12-14T05:30:35;74.07;66.94;82.99;;
60872;Laerm;46714;50.118;14.462;2023-12-14T05:33:00;76.88;66.44;91.51;;
60872;Laerm;46714;50.118;14.462;2023-12-14T05:35:26;76.08;66.24;94.79;;
60872;Laerm;46714;50.118;14.462;2023-12-14T05:37:52;73.84;68.05;79.56;;
60872;Laerm;46714;50.118;14.462;2023-12-14T05:40:17;74.26;66.61;80.83;;
60872;Laerm;46714;50.118;14.462;2023-12-14T05:42:42;74.07;66.98;78.44;;
60872;Laerm;46714;50.118;14.462;2023-12-14T05:45:08;75.18;69.35;82.00;;
60872;Laerm;46714;50.118;14.462;2023-12-14T05:47:34;74.43;67.14;80.92;;
60872;Laerm;46714;50.118;14.462;2023-12-14T05:50:00;81.11;66.18;105.96;;
60872;Laerm;46714;50.118;14.462;2023-12-14T05:52:26;82.80;65.11;103.27;;
60872;Laerm;46714;50.118;14.462;2023-12-14T05:54:52;74.53;67.23;78.58;;
60872;Laerm;46714;50.118;14.462;2023-12-14T05:57:17;73.87;65.58;78.32;;
60872;Laerm;46714;50.118;14.462;2023-12-14T05:59:42;74.46;67.42;79.00;;
60872;Laerm;46714;50.118;14.462;2023-12-14T06:02:08;78.02;68.16;94.38;;
60872;Laerm;46714;50.118;14.462;2023-12-14T06:04:33;74.99;70.34;81.56;;
60872;Laerm;46714;50.118;14.462;2023-12-14T06:06:59;73.89;68.92;78.16;;
60872;Laerm;46714;50.118;14.462;2023-12-14T06:09:24;74.82;66.93;83.43;;
60872;Laerm;46714;50.118;14.462;2023-12-14T06:11:57;79.34;67.01;99.28;;
60872;Laerm;46714;50.118;14.462;2023-12-14T06:14:22;74.55;70.14;80.02;;
60872;Laerm;46714;50.118;14.462;2023-12-14T06:16:47;74.65;68.34;80.39;;
60872;Laerm;46714;50.118;14.462;2023-12-14T06:19:13;77.19;70.01;91.78;;
60872;Laerm;46714;50.118;14.462;2023-12-14T06:21:38;74.26;65.97;79.53;;
60872;Laerm;46714;50.118;14.462;2023-12-14T06:24:04;74.29;65.71;79.90;;
60872;Laerm;46714;50.118;14.462;2023-12-14T06:26:29;74.58;69.62;80.01;;
60872;Laerm;46714;50.118;14.462;2023-12-14T06:28:55;77.31;68.17;97.41;;
60872;Laerm;46714;50.118;14.462;2023-12-14T06:31:21;74.65;68.69;78.59;;
60872;Laerm;46714;50.118;14.462;2023-12-14T06:33:47;73.98;65.81;79.98;;
60872;Laerm;46714;50.118;14.462;2023-12-14T06:36:15;78.78;70.70;98.60;;
60872;Laerm;46714;50.118;14.462;2023-12-14T06:38:42;73.48;68.28;82.17;;
60872;Laerm;46714;50.118;14.462;2023-12-14T06:41:07;74.65;69.47;79.68;;
60872;Laerm;46714;50.118;14.462;2023-12-14T06:43:34;74.36;69.92;83.13;;
60872;Laerm;46714;50.118;14.462;2023-12-14T06:45:59;75.29;66.03;90.14;;
60872;Laerm;46714;50.118;14.462;2023-12-14T06:48:24;74.89;68.37;81.46;;
60872;Laerm;46714;50.118;14.462;2023-12-14T06:50:50;74.66;69.65;78.17;;
60872;Laerm;46714;50.118;14.462;2023-12-14T06:53:15;73.76;66.85;79.86;;
60872;Laerm;46714;50.118;14.462;2023-12-14T06:55:41;73.73;67.91;79.11;;
60872;Laerm;46714;50.118;14.462;2023-12-14T06:58:06;74.51;69.58;79.40;;
60872;Laerm;46714;50.118;14.462;2023-12-14T07:00:37;75.38;69.26;81.54;;
60872;Laerm;46714;50.118;14.462;2023-12-14T07:03:02;74.59;68.27;80.79;;
60872;Laerm;46714;50.118;14.462;2023-12-14T07:05:28;74.64;68.68;81.09;;
60872;Laerm;46714;50.118;14.462;2023-12-14T07:07:53;73.96;65.78;78.65;;
60872;Laerm;46714;50.118;14.462;2023-12-14T07:10:19;76.60;70.89;88.82;;
60872;Laerm;46714;50.118;14.462;2023-12-14T07:12:44;85.70;67.20;103.27;;
60872;Laerm;46714;50.118;14.462;2023-12-14T07:15:10;82.24;67.69;104.07;;
60872;Laerm;46714;50.118;14.462;2023-12-14T07:17:35;74.53;69.29;80.92;;
60872;Laerm;46714;50.118;14.462;2023-12-14T07:20:00;73.93;66.50;83.06;;
60872;Laerm;46714;50.118;14.462;2023-12-14T07:22:26;80.72;66.21;101.19;;
60872;Laerm;46714;50.118;14.462;2023-12-14T07:24:51;81.55;64.27;104.43;;
60872;Laerm;46714;50.118;14.462;2023-12-14T07:27:16;73.83;67.66;79.59;;
60872;Laerm;46714;50.118;14.462;2023-12-14T07:29:42;73.53;67.87;80.27;;
60872;Laerm;46714;50.118;14.462;2023-12-14T07:32:07;74.26;65.86;83.17;;
60872;Laerm;46714;50.118;14.462;2023-12-14T07:34:33;76.13;66.71;91.15;;
60872;Laerm;46714;50.118;14.462;2023-12-14T07:36:58;77.23;66.54;100.01;;
60872;Laerm;46714;50.118;14.462;2023-12-14T07:39:25;73.93;65.28;80.73;;
60872;Laerm;46714;50.118;14.462;2023-12-14T07:41:51;73.95;61.94;81.71;;
60872;Laerm;46714;50.118;14.462;2023-12-14T07:44:16;73.38;65.52;79.43;;
60872;Laerm;46714;50.118;14.462;2023-12-14T07:46:41;74.74;65.27;89.71;;
60872;Laerm;46714;50.118;14.462;2023-12-14T07:49:08;73.10;63.45;83.84;;
60872;Laerm;46714;50.118;14.462;2023-12-14T07:51:33;72.69;66.58;77.05;;
60872;Laerm;46714;50.118;14.462;2023-12-14T07:53:59;73.24;64.40;81.19;;
60872;Laerm;46714;50.118;14.462;2023-12-14T07:56:24;72.78;65.69;77.46;;
60872;Laerm;46714;50.118;14.462;2023-12-14T07:58:52;73.29;66.91;80.10;;
60872;Laerm;46714;50.118;14.462;2023-12-14T08:01:18;72.60;63.82;79.90;;
60872;Laerm;46714;50.118;14.462;2023-12-14T08:03:43;72.56;65.74;77.34;;
60872;Laerm;46714;50.118;14.462;2023-12-14T08:06:09;76.78;64.99;100.20;;
60872;Laerm;46714;50.118;14.462;2023-12-14T08:08:34;73.20;65.39;78.89;;
60872;Laerm;46714;50.118;14.462;2023-12-14T08:10:59;73.52;64.07;82.11;;
60872;Laerm;46714;50.118;14.462;2023-12-14T08:13:25;73.33;63.88;77.84;;
60872;Laerm;46714;50.118;14.462;2023-12-14T08:15:50;73.40;65.31;81.31;;
60872;Laerm;46714;50.118;14.462;2023-12-14T08:18:15;72.92;63.58;79.19;;
60872;Laerm;46714;50.118;14.462;2023-12-14T08:20:41;72.84;66.77;78.40;;
60872;Laerm;46714;50.118;14.462;2023-12-14T08:23:06;71.99;60.77;78.03;;
60872;Laerm;46714;50.118;14.462;2023-12-14T08:25:32;73.03;66.17;78.44;;
60872;Laerm;46714;50.118;14.462;2023-12-14T08:27:57;72.87;65.72;78.55;;
60872;Laerm;46714;50.118;14.462;2023-12-14T08:30:23;73.05;66.63;77.95;;
60872;Laerm;46714;50.118;14.462;2023-12-14T08:32:49;73.94;65.09;84.24;;
60872;Laerm;46714;50.118;14.462;2023-12-14T08:35:14;72.93;64.08;80.41;;
60872;Laerm;46714;50.118;14.462;2023-12-14T08:37:40;73.87;62.01;79.43;;
60872;Laerm;46714;50.118;14.462;2023-12-14T08:40:06;73.82;63.21;80.12;;
60872;Laerm;46714;50.118;14.462;2023-12-14T08:42:32;73.53;65.06;79.92;;
60872;Laerm;46714;50.118;14.462;2023-12-14T08:44:58;75.42;65.22;89.60;;
60872;Laerm;46714;50.118;14.462;2023-12-14T08:47:23;73.66;62.59;83.79;;
60872;Laerm;46714;50.118;14.462;2023-12-14T08:49:48;73.25;66.69;80.29;;
60872;Laerm;46714;50.118;14.462;2023-12-14T08:52:14;73.73;67.26;80.19;;
60872;Laerm;46714;50.118;14.462;2023-12-14T08:54:39;79.12;66.18;101.96;;
60872;Laerm;46714;50.118;14.462;2023-12-14T08:57:05;72.87;65.07;79.60;;
60872;Laerm;46714;50.118;14.462;2023-12-14T08:59:30;73.61;67.03;78.93;;
60872;Laerm;46714;50.118;14.462;2023-12-14T09:01:56;78.84;67.16;99.05;;
60872;Laerm;46714;50.118;14.462;2023-12-14T09:04:21;72.53;64.41;77.84;;
60872;Laerm;46714;50.118;14.462;2023-12-14T09:06:46;73.71;64.32;79.15;;
60872;Laerm;46714;50.118;14.462;2023-12-14T09:09:12;78.92;67.15;94.92;;
60872;Laerm;46714;50.118;14.462;2023-12-14T09:11:37;73.69;64.71;80.43;;
60872;Laerm;46714;50.118;14.462;2023-12-14T09:14:03;74.85;62.52;93.65;;
60872;Laerm;46714;50.118;14.462;2023-12-14T09:16:28;74.04;64.77;79.01;;
60872;Laerm;46714;50.118;14.462;2023-12-14T09:18:54;73.23;65.88;78.09;;
60872;Laerm;46714;50.118;14.462;2023-12-14T09:21:19;73.19;63.17;81.86;;
60872;Laerm;46714;50.118;14.462;2023-12-14T09:23:44;73.73;61.79;79.91;;
60872;Laerm;46714;50.118;14.462;2023-12-14T09:26:10;73.51;67.06;77.46;;
60872;Laerm;46714;50.118;14.462;2023-12-14T09:28:36;73.48;67.45;81.27;;
60872;Laerm;46714;50.118;14.462;2023-12-14T09:31:02;74.11;64.96;79.48;;
60872;Laerm;46714;50.118;14.462;2023-12-14T09:33:27;73.81;64.95;79.80;;
60872;Laerm;46714;50.118;14.462;2023-12-14T09:35:53;74.35;68.05;81.38;;
60872;Laerm;46714;50.118;14.462;2023-12-14T09:38:18;73.62;66.27;79.75;;
60872;Laerm;46714;50.118;14.462;2023-12-14T09:40:44;73.94;66.27;78.34;;
60872;Laerm;46714;50.118;14.462;2023-12-14T09:43:10;73.91;68.52;77.93;;
60872;Laerm;46714;50.118;14.462;2023-12-14T09:45:38;74.30;67.49;79.76;;
60872;Laerm;46714;50.118;14.462;2023-12-14T09:48:10;74.45;67.75;80.68;;
60872;Laerm;46714;50.118;14.462;2023-12-14T09:50:35;74.95;69.70;90.10;;
60872;Laerm;46714;50.118;14.462;2023-12-14T09:53:02;76.60;69.77;96.99;;
60872;Laerm;46714;50.118;14.462;2023-12-14T09:55:27;77.45;68.40;96.90;;
60872;Laerm;46714;50.118;14.462;2023-12-14T09:57:52;73.94;69.48;78.53;;
60872;Laerm;46714;50.118;14.462;2023-12-14T10:00:39;72.81;61.18;81.40;;
60872;Laerm;46714;50.118;14.462;2023-12-14T10:05:49;72.76;65.11;77.11;;
60872;Laerm;46714;50.118;14.462;2023-12-14T10:08:17;74.19;65.25;83.71;;
60872;Laerm;46714;50.118;14.462;2023-12-14T10:10:44;74.83;71.16;81.46;;
60872;Laerm;46714;50.118;14.462;2023-12-14T10:13:09;75.46;70.30;81.53;;
60872;Laerm;46714;50.118;14.462;2023-12-14T10:15:43;75.14;69.47;92.17;;
60872;Laerm;46714;50.118;14.462;2023-12-14T10:18:08;74.88;70.19;81.42;;
60872;Laerm;46714;50.118;14.462;2023-12-14T10:20:34;74.62;69.44;83.46;;
60872;Laerm;46714;50.118;14.462;2023-12-14T10:22:59;75.52;65.14;89.84;;
60872;Laerm;46714;50.118;14.462;2023-12-14T10:25:25;74.96;69.03;82.66;;
60872;Laerm;46714;50.118;14.462;2023-12-14T10:27:51;74.39;70.38;78.26;;
60872;Laerm;46714;50.118;14.462;2023-12-14T10:30:19;74.14;70.37;82.00;;
60872;Laerm;46714;50.118;14.462;2023-12-14T10:32:48;74.43;70.51;77.91;;
60872;Laerm;46714;50.118;14.462;2023-12-14T10:35:17;75.42;70.78;83.36;;
60872;Laerm;46714;50.118;14.462;2023-12-14T10:37:44;74.46;70.55;81.72;;
60872;Laerm;46714;50.118;14.462;2023-12-14T10:40:13;75.35;70.17;82.83;;
60872;Laerm;46714;50.118;14.462;2023-12-14T10:42:42;76.06;71.77;80.95;;
60872;Laerm;46714;50.118;14.462;2023-12-14T10:45:11;74.97;69.43;79.40;;
60872;Laerm;46714;50.118;14.462;2023-12-14T10:47:39;80.07;69.42;100.88;;
60872;Laerm;46714;50.118;14.462;2023-12-14T10:50:10;74.79;68.47;78.19;;
60872;Laerm;46714;50.118;14.462;2023-12-14T10:52:37;75.71;70.34;85.00;;
60872;Laerm;46714;50.118;14.462;2023-12-14T10:55:07;74.93;68.06;80.39;;
60872;Laerm;46714;50.118;14.462;2023-12-14T10:57:34;74.56;70.10;82.99;;
60872;Laerm;46714;50.118;14.462;2023-12-14T11:00:00;74.67;69.21;79.77;;
60872;Laerm;46714;50.118;14.462;2023-12-14T11:02:27;73.78;67.16;79.05;;
60872;Laerm;46714;50.118;14.462;2023-12-14T11:04:57;74.86;68.46;80.13;;
60872;Laerm;46714;50.118;14.462;2023-12-14T11:10:15;74.84;70.11;79.78;;
60872;Laerm;46714;50.118;14.462;2023-12-14T11:12:52;75.29;71.62;79.20;;
60872;Laerm;46714;50.118;14.462;2023-12-14T11:15:21;74.34;69.31;79.60;;
60872;Laerm;46714;50.118;14.462;2023-12-14T11:23:10;74.45;70.67;78.29;;
60872;Laerm;46714;50.118;14.462;2023-12-14T11:25:36;74.56;70.46;78.92;;
60872;Laerm;46714;50.118;14.462;2023-12-14T11:28:06;79.93;69.20;103.00;;
60872;Laerm;46714;50.118;14.462;2023-12-14T11:30:36;74.21;69.14;79.08;;
60872;Laerm;46714;50.118;14.462;2023-12-14T11:33:02;75.09;70.96;80.60;;
60872;Laerm;46714;50.118;14.462;2023-12-14T11:35:28;74.40;68.39;78.89;;
60872;Laerm;46714;50.118;14.462;2023-12-14T11:37:53;75.31;71.37;82.65;;
60872;Laerm;46714;50.118;14.462;2023-12-14T11:40:18;75.81;71.98;79.90;;
60872;Laerm;46714;50.118;14.462;2023-12-14T11:43:03;75.62;71.02;80.34;;
60872;Laerm;46714;50.118;14.462;2023-12-14T11:45:33;75.14;68.64;81.37;;
60872;Laerm;46714;50.118;14.462;2023-12-14T11:47:59;75.48;68.05;82.15;;
60872;Laerm;46714;50.118;14.462;2023-12-14T11:50:26;75.27;70.08;86.60;;
60872;Laerm;46714;50.118;14.462;2023-12-14T11:52:52;75.34;71.18;88.63;;
60872;Laerm;46714;50.118;14.462;2023-12-14T11:55:19;75.05;71.72;84.25;;
60872;Laerm;46714;50.118;14.462;2023-12-14T11:57:46;74.78;69.50;80.30;;
60872;Laerm;46714;50.118;14.462;2023-12-14T12:00:12;75.04;71.52;78.35;;
60872;Laerm;46714;50.118;14.462;2023-12-14T12:02:39;75.11;68.89;79.60;;
60872;Laerm;46714;50.118;14.462;2023-12-14T12:05:08;75.14;71.03;80.94;;
60872;Laerm;46714;50.118;14.462;2023-12-14T12:07:39;78.03;71.50;97.26;;
60872;Laerm;46714;50.118;14.462;2023-12-14T12:10:05;76.52;71.52;93.47;;
60872;Laerm;46714;50.118;14.462;2023-12-14T12:12:33;74.98;71.33;82.75;;
60872;Laerm;46714;50.118;14.462;2023-12-14T12:14:59;74.30;69.85;78.93;;
60872;Laerm;46714;50.118;14.462;2023-12-14T12:17:24;75.44;71.22;90.10;;
60872;Laerm;46714;50.118;14.462;2023-12-14T12:19:49;74.12;68.58;78.90;;
60872;Laerm;46714;50.118;14.462;2023-12-14T12:22:15;73.56;66.04;78.64;;
60872;Laerm;46714;50.118;14.462;2023-12-14T12:24:40;74.48;69.60;78.86;;
60872;Laerm;46714;50.118;14.462;2023-12-14T12:27:06;74.90;70.17;83.26;;
60872;Laerm;46714;50.118;14.462;2023-12-14T12:29:31;74.53;70.12;80.54;;
60872;Laerm;46714;50.118;14.462;2023-12-14T12:31:57;75.26;70.80;84.21;;
60872;Laerm;46714;50.118;14.462;2023-12-14T12:34:23;75.13;70.27;83.07;;
60872;Laerm;46714;50.118;14.462;2023-12-14T12:36:49;74.24;70.46;79.08;;
60872;Laerm;46714;50.118;14.462;2023-12-14T12:39:14;73.68;67.12;78.47;;
60872;Laerm;46714;50.118;14.462;2023-12-14T12:41:39;74.17;70.85;88.55;;
60872;Laerm;46714;50.118;14.462;2023-12-14T12:44:05;77.82;68.96;96.59;;
60872;Laerm;46714;50.118;14.462;2023-12-14T12:46:40;73.80;68.63;78.49;;
60872;Laerm;46714;50.118;14.462;2023-12-14T12:49:06;74.64;70.84;79.68;;
60872;Laerm;46714;50.118;14.462;2023-12-14T12:51:32;74.27;70.30;79.32;;
60872;Laerm;46714;50.118;14.462;2023-12-14T12:53:58;73.58;65.52;83.54;;
60872;Laerm;46714;50.118;14.462;2023-12-14T12:56:26;73.64;66.30;79.40;;
60872;Laerm;46714;50.118;14.462;2023-12-14T12:58:51;73.94;66.91;83.47;;
60872;Laerm;46714;50.118;14.462;2023-12-14T13:01:20;74.59;67.00;83.47;;
60872;Laerm;46714;50.118;14.462;2023-12-14T13:03:46;74.47;69.30;82.09;;
60872;Laerm;46714;50.118;14.462;2023-12-14T13:06:11;73.64;67.38;77.63;;
60872;Laerm;46714;50.118;14.462;2023-12-14T13:08:37;74.31;69.31;78.78;;
60872;Laerm;46714;50.118;14.462;2023-12-14T13:11:02;73.86;69.92;78.26;;
60872;Laerm;46714;50.118;14.462;2023-12-14T13:13:28;74.59;70.69;80.49;;
60872;Laerm;46714;50.118;14.462;2023-12-14T13:15:53;74.30;69.38;80.64;;
60872;Laerm;46714;50.118;14.462;2023-12-14T13:18:19;74.48;67.92;81.43;;
60872;Laerm;46714;50.118;14.462;2023-12-14T13:20:44;76.90;68.06;91.79;;
60872;Laerm;46714;50.118;14.462;2023-12-14T13:23:09;74.55;70.73;80.70;;
60872;Laerm;46714;50.118;14.462;2023-12-14T13:25:35;73.71;70.10;79.71;;
60872;Laerm;46714;50.118;14.462;2023-12-14T13:28:01;74.76;70.40;79.91;;
60872;Laerm;46714;50.118;14.462;2023-12-14T13:30:28;74.20;69.81;81.26;;
60872;Laerm;46714;50.118;14.462;2023-12-14T13:32:54;73.85;69.34;79.85;;
60872;Laerm;46714;50.118;14.462;2023-12-14T13:35:20;74.16;70.32;78.09;;
60872;Laerm;46714;50.118;14.462;2023-12-14T13:37:45;73.64;69.57;78.84;;